createdAt,value
2023-10-23T00:00:29.802Z,10.85
2023-10-23T00:05:52.851Z,10.85
2023-10-23T00:10:55.868Z,10.85
2023-10-23T00:15:58.972Z,10.86
2023-10-23T00:21:02.087Z,10.85
2023-10-23T00:26:07.140Z,10.84
2023-10-23T00:31:10.165Z,10.84
2023-10-23T00:36:13.350Z,10.85
2023-10-23T00:41:16.554Z,10.85
2023-10-23T00:46:21.510Z,10.85
2023-10-23T00:51:24.606Z,10.86
2023-10-23T00:56:28.627Z,10.88
2023-10-23T01:01:34.428Z,10.90
2023-10-23T01:06:37.592Z,10.91
2023-10-23T01:11:40.553Z,10.92
2023-10-23T01:16:43.560Z,10.92
2023-10-23T01:21:46.590Z,10.92
2023-10-23T01:26:49.991Z,10.91
2023-10-23T01:31:52.900Z,10.91
2023-10-23T01:36:55.895Z,10.90
2023-10-23T01:41:59.003Z,10.90
2023-10-23T01:47:02.005Z,10.89
2023-10-23T01:52:05.751Z,10.87
2023-10-23T01:57:08.939Z,10.86
2023-10-23T02:02:12.374Z,10.86
2023-10-23T02:07:15.363Z,10.85
2023-10-23T02:12:18.405Z,10.84
2023-10-23T02:17:21.978Z,10.83
2023-10-23T02:22:25.426Z,10.82
2023-10-23T02:27:28.536Z,10.81
2023-10-23T02:32:31.656Z,10.80
2023-10-23T02:37:34.831Z,10.77
2023-10-23T02:42:38.181Z,10.75
2023-10-23T02:47:41.476Z,10.73
2023-10-23T02:52:44.573Z,10.70
2023-10-23T02:57:47.738Z,10.67
2023-10-23T03:02:51.310Z,10.63
2023-10-23T03:07:54.926Z,10.61
2023-10-23T03:13:01.408Z,10.59
2023-10-23T03:18:06.709Z,10.58
2023-10-23T03:23:09.984Z,10.54
2023-10-23T03:28:13.251Z,10.44
2023-10-23T03:33:16.510Z,10.38
2023-10-23T03:38:19.726Z,10.34
2023-10-23T03:43:22.726Z,10.30
2023-10-23T03:48:25.852Z,10.27
2023-10-23T03:53:29.163Z,10.23
2023-10-23T03:58:32.266Z,10.21
2023-10-23T04:03:35.357Z,10.14
2023-10-23T04:08:39.085Z,9.99
2023-10-23T04:13:42.406Z,9.82
2023-10-23T04:18:45.738Z,9.61
2023-10-23T04:23:48.928Z,9.41
2023-10-23T04:28:52.152Z,9.24
2023-10-23T04:33:55.373Z,9.15
2023-10-23T04:38:58.469Z,9.16
2023-10-23T04:44:01.654Z,9.23
2023-10-23T04:49:05.228Z,9.32
2023-10-23T04:54:08.527Z,9.37
2023-10-23T04:59:11.623Z,9.42
2023-10-23T05:04:14.932Z,9.46
2023-10-23T05:09:18.161Z,9.50
2023-10-23T05:14:21.279Z,9.52
2023-10-23T05:19:24.210Z,9.52
2023-10-23T05:24:28.307Z,9.54
2023-10-23T05:29:31.413Z,9.55
2023-10-23T05:34:35.073Z,9.57
2023-10-23T05:39:38.436Z,9.58
2023-10-23T05:44:41.993Z,9.58
2023-10-23T05:49:45.267Z,9.59
2023-10-23T05:54:48.492Z,9.61
2023-10-23T05:59:51.691Z,9.62
2023-10-23T06:04:55.004Z,9.63
2023-10-23T06:09:59.770Z,9.63
2023-10-23T06:15:03.387Z,9.63
2023-10-23T06:20:07.409Z,9.59
2023-10-23T06:25:10.514Z,9.58
2023-10-23T06:30:13.982Z,9.61
2023-10-23T06:35:17.559Z,9.66
2023-10-23T06:40:20.647Z,9.67
2023-10-23T06:45:25.920Z,9.69
2023-10-23T06:50:34.025Z,9.72
2023-10-23T06:55:37.137Z,9.79
2023-10-23T07:00:40.238Z,9.97
2023-10-23T07:05:43.801Z,10.86
2023-10-23T07:10:46.885Z,11.27
2023-10-23T07:15:53.185Z,11.24
2023-10-23T07:20:58.206Z,11.19
2023-10-23T07:26:05.345Z,11.12
2023-10-23T07:31:10.233Z,10.99
2023-10-23T07:36:14.902Z,10.99
2023-10-23T07:41:18.026Z,10.91
2023-10-23T07:46:21.330Z,10.92
2023-10-23T07:51:24.537Z,11.06
2023-10-23T07:56:27.753Z,11.30
2023-10-23T08:01:30.907Z,11.53
2023-10-23T08:06:34.188Z,11.59
2023-10-23T08:11:37.481Z,11.78
2023-10-23T08:16:40.868Z,12.07
2023-10-23T08:21:44.472Z,12.22
2023-10-23T08:26:47.743Z,12.22
2023-10-23T08:31:51.011Z,12.37
2023-10-23T08:36:54.197Z,12.57
2023-10-23T08:41:58.491Z,12.73
2023-10-23T08:47:01.827Z,12.89
2023-10-23T08:52:11.029Z,12.98
2023-10-23T08:57:16.329Z,13.05
2023-10-23T09:02:19.840Z,13.10
2023-10-23T09:07:23.097Z,13.11
2023-10-23T09:12:37.754Z,13.13
2023-10-23T09:17:42.205Z,13.14
2023-10-23T09:22:48.970Z,13.29
2023-10-23T09:27:53.631Z,13.44
2023-10-23T09:32:56.878Z,13.51
2023-10-23T09:38:00.136Z,13.67
2023-10-23T09:43:03.499Z,13.78
2023-10-23T09:48:07.941Z,13.88
2023-10-23T09:53:12.952Z,13.98
2023-10-23T09:58:18.822Z,14.01
2023-10-23T10:03:24.769Z,14.04
2023-10-23T10:08:34.567Z,14.14
2023-10-23T10:13:38.331Z,14.23
2023-10-23T10:18:44.021Z,14.35
2023-10-23T10:23:47.476Z,14.53
2023-10-23T10:28:56.175Z,14.77
2023-10-23T10:34:28.145Z,14.84
2023-10-23T10:39:54.181Z,14.75
2023-10-23T10:45:14.866Z,14.61
2023-10-23T10:50:40.164Z,14.64
2023-10-23T10:55:46.542Z,14.72
2023-10-23T11:00:49.866Z,14.84
2023-10-23T11:05:54.230Z,15.03
2023-10-23T11:11:01.197Z,15.07
2023-10-23T11:16:06.073Z,15.02
2023-10-23T11:21:10.625Z,15.09
2023-10-23T11:26:13.729Z,15.19
2023-10-23T11:31:16.824Z,15.08
2023-10-23T11:36:22.005Z,14.98
2023-10-23T11:41:28.679Z,14.75
2023-10-23T11:46:32.417Z,14.42
2023-10-23T11:51:35.638Z,14.15
2023-10-23T11:56:38.854Z,13.98
2023-10-23T12:01:43.015Z,13.93
2023-10-23T12:06:46.324Z,13.97
2023-10-23T12:11:50.116Z,14.07
2023-10-23T12:16:53.257Z,14.13
2023-10-23T12:21:56.397Z,14.16
2023-10-23T12:26:59.759Z,14.18
2023-10-23T12:32:05.919Z,14.12
2023-10-23T12:37:09.400Z,14.03
2023-10-23T12:42:12.593Z,13.91
2023-10-23T12:47:15.989Z,13.79
2023-10-23T12:52:20.232Z,13.73
2023-10-23T12:57:23.422Z,13.70
2023-10-23T13:02:27.250Z,13.68
2023-10-23T13:07:30.423Z,13.68
2023-10-23T13:12:33.771Z,13.73
2023-10-23T13:17:36.982Z,13.90
2023-10-23T13:22:40.274Z,13.94
2023-10-23T13:27:50.287Z,13.79
2023-10-23T13:32:53.533Z,13.61
2023-10-23T13:37:56.791Z,13.45
2023-10-23T13:42:59.960Z,13.23
2023-10-23T13:48:04.252Z,12.94
2023-10-23T13:53:09.154Z,12.66
2023-10-23T13:58:12.887Z,12.45
2023-10-23T14:03:16.307Z,12.33
2023-10-23T14:08:19.639Z,12.29
2023-10-23T14:13:38.911Z,12.25
2023-10-23T14:18:42.249Z,12.23
2023-10-23T14:23:45.690Z,12.22
2023-10-23T14:28:48.879Z,12.23
2023-10-23T14:33:52.428Z,12.20
2023-10-23T14:38:55.614Z,12.09
2023-10-23T14:43:59.797Z,11.95
2023-10-23T14:49:04.359Z,11.77
2023-10-23T14:54:07.496Z,11.58
2023-10-23T14:59:10.556Z,11.38
2023-10-23T15:04:13.934Z,11.16
2023-10-23T15:09:17.235Z,10.93
2023-10-23T15:14:20.349Z,10.69
2023-10-23T15:19:23.827Z,10.44
2023-10-23T15:24:26.976Z,10.20
2023-10-23T15:29:30.293Z,9.99
2023-10-23T15:34:33.805Z,9.78
2023-10-23T15:39:42.170Z,9.59
2023-10-23T15:44:45.659Z,9.39
2023-10-23T15:49:48.875Z,9.19
2023-10-23T15:54:52.226Z,9.03
2023-10-23T15:59:55.317Z,8.85
2023-10-23T16:04:58.406Z,8.71
2023-10-23T16:10:01.967Z,8.57
2023-10-23T16:15:06.019Z,8.47
2023-10-23T16:20:11.081Z,8.38
2023-10-23T16:25:14.286Z,8.31
2023-10-23T16:30:17.439Z,8.24
2023-10-23T16:35:21.732Z,8.17
2023-10-23T16:40:25.084Z,8.11
2023-10-23T16:45:33.077Z,8.07
2023-10-23T16:50:36.536Z,8.02
2023-10-23T16:55:39.746Z,7.98
2023-10-23T17:00:43.084Z,7.91
2023-10-23T17:05:46.147Z,7.85
2023-10-23T17:10:49.377Z,7.79
2023-10-23T17:15:53.110Z,7.74
2023-10-23T17:20:57.136Z,7.69
2023-10-23T17:26:01.070Z,7.62
2023-10-23T17:31:04.914Z,7.56
2023-10-23T17:36:08.733Z,7.50
2023-10-23T17:41:19.275Z,7.42
2023-10-23T17:46:22.478Z,7.34
2023-10-23T17:51:25.714Z,7.25
2023-10-23T17:56:28.818Z,7.16
2023-10-23T18:01:32.232Z,7.09
2023-10-23T18:06:35.546Z,6.94
2023-10-23T18:11:41.795Z,6.78
2023-10-23T18:16:46.313Z,6.68
2023-10-23T18:21:49.688Z,6.62
2023-10-23T18:26:52.885Z,6.55
2023-10-23T18:31:56.039Z,6.44
2023-10-23T18:36:59.154Z,6.32
2023-10-23T18:42:02.603Z,6.20
2023-10-23T18:47:08.715Z,6.08
2023-10-23T18:52:12.074Z,5.95
2023-10-23T18:57:15.338Z,5.81
2023-10-23T19:02:18.762Z,5.66
2023-10-23T19:07:22.209Z,5.52
2023-10-23T19:12:25.687Z,5.44
2023-10-23T19:17:39.735Z,5.36
2023-10-23T19:22:44.612Z,5.26
2023-10-23T19:27:47.631Z,5.17
2023-10-23T19:32:52.754Z,5.09
2023-10-23T19:37:56.225Z,5.01
2023-10-23T19:43:13.691Z,4.93
2023-10-23T19:48:17.389Z,4.83
2023-10-23T19:53:21.609Z,4.72
2023-10-23T19:58:26.065Z,4.67
2023-10-23T20:03:29.169Z,4.63
2023-10-23T20:08:32.589Z,4.63
2023-10-23T20:13:36.045Z,4.67
2023-10-23T20:18:40.307Z,4.66
2023-10-23T20:23:43.455Z,4.61
2023-10-23T20:28:46.671Z,4.56
2023-10-23T20:33:52.446Z,4.48
2023-10-23T20:38:56.265Z,4.41
2023-10-23T20:43:59.579Z,4.33
2023-10-23T20:49:03.023Z,4.25
2023-10-23T20:54:06.387Z,4.18
2023-10-23T20:59:10.026Z,4.10
2023-10-23T21:04:13.226Z,4.01
2023-10-23T21:09:16.434Z,3.91
2023-10-23T21:14:19.817Z,3.74
2023-10-23T21:19:23.047Z,3.60
2023-10-23T21:24:26.260Z,3.49
2023-10-23T21:29:29.375Z,3.42
2023-10-23T21:34:32.561Z,3.41
2023-10-23T21:39:35.796Z,3.40
2023-10-23T21:44:38.890Z,3.31
2023-10-23T21:49:42.210Z,3.23
2023-10-23T21:54:46.004Z,3.15
2023-10-23T21:59:49.590Z,3.12
2023-10-23T22:04:53.174Z,3.10
2023-10-23T22:09:56.899Z,3.09
2023-10-23T22:15:00.416Z,3.08
2023-10-23T22:20:04.859Z,2.99
2023-10-23T22:25:09.469Z,2.91
2023-10-23T22:30:12.822Z,2.89
2023-10-23T22:35:15.935Z,2.82
2023-10-23T22:40:19.429Z,2.70
2023-10-23T22:45:22.668Z,2.58
2023-10-23T22:50:26.153Z,2.48
2023-10-23T22:55:29.771Z,2.39
2023-10-23T23:00:33.468Z,2.31
2023-10-23T23:05:40.776Z,2.24
2023-10-23T23:10:44.390Z,2.17
2023-10-23T23:15:51.173Z,2.11
2023-10-23T23:20:57.446Z,2.03
2023-10-23T23:26:00.555Z,1.97
2023-10-23T23:31:03.774Z,1.97
2023-10-23T23:36:07.390Z,1.94
2023-10-23T23:41:10.484Z,1.88
2023-10-23T23:46:13.653Z,1.81
2023-10-23T23:51:17.106Z,1.74
2023-10-23T23:56:20.112Z,1.69
